Time;durP1;ratioP1;P1;durP2;ratioP2;P2;SDS_P1;SDS_P2;PMS_P1;PMS_P2;Temp;Humidity;BMP_temperature;BMP_pressure;BME280_temperature;BME280_humidity;BME280_pressure;Samples;Min_cycle;Max_cycle;Signal;HPM_P1;HPM_P2
2023/06/17 00:00:33;;;;;;;12.38;11.18;;;;;;;14.68;100.00;99300.22;5052835;28;20035;-82
2023/06/17 00:02:58;;;;;;;11.40;10.30;;;;;;;14.58;100.00;99278.22;5053102;28;20115;-82
2023/06/17 00:05:24;;;;;;;11.38;9.60;;;;;;;14.71;100.00;99301.78;5051785;28;20695;-82
2023/06/17 00:07:51;;;;;;;12.07;9.88;;;;;;;14.68;100.00;99297.59;5053037;28;20075;-82
2023/06/17 00:10:16;;;;;;;11.35;10.25;;;;;;;14.58;100.00;99287.84;5051557;28;20032;-81
2023/06/17 00:12:41;;;;;;;11.38;10.23;;;;;;;14.61;100.00;99295.50;5052534;28;20488;-82
2023/06/17 00:15:07;;;;;;;11.02;9.93;;;;;;;14.58;100.00;99293.94;5051711;28;20392;-81
2023/06/17 00:17:33;;;;;;;12.25;10.27;;;;;;;14.66;100.00;99311.72;5052660;28;20119;-81
2023/06/17 00:20:12;;;;;;;12.80;11.48;;;;;;;14.69;100.00;99319.41;5052805;28;20029;-81
2023/06/17 00:22:39;;;;;;;12.50;11.30;;;;;;;14.54;100.00;99313.44;5051232;28;20028;-82
2023/06/17 00:25:05;;;;;;;12.07;10.88;;;;;;;14.38;100.00;99291.81;5051261;28;20074;-82
2023/06/17 00:27:31;;;;;;;12.15;10.40;;;;;;;14.40;100.00;99295.97;5052179;28;20044;-82
2023/06/17 00:29:59;;;;;;;13.15;10.43;;;;;;;14.31;100.00;99288.75;5051484;28;20029;-81
2023/06/17 00:32:26;;;;;;;10.57;9.57;;;;;;;14.26;100.00;99280.38;5052292;28;20029;-81
2023/06/17 00:34:52;;;;;;;11.35;10.18;;;;;;;14.34;100.00;99291.16;5052220;28;20070;-82
2023/06/17 00:37:17;;;;;;;13.43;11.20;;;;;;;14.43;100.00;99308.03;5052398;28;20227;-82
2023/06/17 00:39:42;;;;;;;11.25;9.63;;;;;;;14.41;100.00;99302.06;5052366;28;20036;-81
2023/06/17 00:42:08;;;;;;;10.93;9.23;;;;;;;14.41;100.00;99296.81;5050927;28;20029;-82
2023/06/17 00:44:33;;;;;;;13.50;10.65;;;;;;;14.40;100.00;99295.16;5050890;28;20021;-81
2023/06/17 00:46:59;;;;;;;13.23;9.80;;;;;;;14.39;100.00;99296.94;5052258;28;20025;-81
2023/06/17 00:49:34;;;;;;;10.73;8.98;;;;;;;14.42;100.00;99293.28;5050718;28;20066;-81
2023/06/17 00:52:04;;;;;;;11.50;10.13;;;;;;;14.22;100.00;99265.81;5050940;28;20021;-82
2023/06/17 00:54:31;;;;;;;12.00;10.02;;;;;;;14.34;100.00;99280.69;5050419;28;20036;-81
2023/06/17 00:56:57;;;;;;;10.18;9.27;;;;;;;14.44;100.00;99289.59;5050939;28;20044;-81
2023/06/17 00:59:22;;;;;;;11.13;10.00;;;;;;;14.21;100.00;99251.88;5052159;28;20106;-81
2023/06/17 01:01:48;;;;;;;11.00;9.40;;;;;;;14.16;100.00;99243.50;5050684;28;20170;-81
2023/06/17 01:04:15;;;;;;;11.55;9.80;;;;;;;14.30;100.00;99260.03;5051942;28;20096;-81
2023/06/17 01:06:52;;;;;;;13.02;9.70;;;;;;;14.48;100.00;99293.72;5050471;28;20052;-81
2023/06/17 01:09:23;;;;;;;14.48;9.55;;;;;;;14.53;100.00;99292.56;5050712;28;20073;-82
2023/06/17 01:11:53;;;;;;;10.65;9.55;;;;;;;14.53;100.00;99289.94;5051771;28;20029;-81
2023/06/17 01:14:20;;;;;;;10.60;9.27;;;;;;;14.42;100.00;99272.31;5052050;28;20090;-81
2023/06/17 01:16:50;;;;;;;10.65;9.65;;;;;;;14.50;100.00;99285.75;5051650;28;20033;-82
2023/06/17 01:19:20;;;;;;;10.52;9.52;;;;;;;14.53;100.00;99298.63;5050546;28;20025;-81
2023/06/17 01:21:51;;;;;;;11.50;10.30;;;;;;;14.51;100.00;99287.44;5051877;28;20119;-81
2023/06/17 01:24:27;;;;;;;10.75;9.70;;;;;;;14.37;100.00;99266.56;5052052;28;20036;-82
2023/06/17 01:26:57;;;;;;;11.20;10.00;;;;;;;14.41;100.00;99276.72;5051828;28;20036;-81
2023/06/17 01:29:23;;;;;;;11.13;10.02;;;;;;;14.42;100.00;99273.16;5029234;28;20405;-81
2023/06/17 01:31:59;;;;;;;11.63;10.52;;;;;;;14.46;100.00;99285.09;5029054;28;20053;-81
2023/06/17 01:34:36;;;;;;;11.15;9.90;;;;;;;14.50;100.00;99298.88;5012762;28;20076;-81
2023/06/17 01:37:08;;;;;;;12.20;11.00;;;;;;;14.46;100.00;99297.38;5012847;28;20366;-81
2023/06/17 01:39:36;;;;;;;11.07;9.40;;;;;;;14.44;100.00;99286.13;5012494;28;20041;-81
2023/06/17 01:42:05;;;;;;;10.70;9.52;;;;;;;14.37;100.00;99274.41;5029328;28;20038;-81
2023/06/17 01:44:32;;;;;;;10.65;9.55;;;;;;;14.51;100.00;99294.47;5028831;28;20052;-81
2023/06/17 01:46:58;;;;;;;11.32;9.82;;;;;;;14.41;100.00;99271.47;5029178;28;20029;-81
2023/06/17 01:49:23;;;;;;;10.82;9.82;;;;;;;14.35;100.00;99258.78;5029127;28;20164;-81
2023/06/17 01:51:48;;;;;;;11.02;9.63;;;;;;;14.61;100.00;99295.50;5029059;28;20448;-81
2023/06/17 01:54:14;;;;;;;10.13;9.13;;;;;;;14.37;100.00;99264.78;5029082;28;20095;-81
2023/06/17 01:56:39;;;;;;;11.30;10.13;;;;;;;14.59;100.00;99303.47;5028950;28;20029;-81
2023/06/17 01:59:04;;;;;;;10.45;9.40;;;;;;;14.40;100.00;99267.16;5029024;28;20038;-81
2023/06/17 02:01:30;;;;;;;10.73;9.63;;;;;;;14.59;100.00;99306.09;5050424;28;20039;-81
2023/06/17 02:03:55;;;;;;;11.00;9.88;;;;;;;14.56;100.00;99300.22;5051577;28;20033;-81
2023/06/17 02:06:20;;;;;;;12.38;9.07;;;;;;;14.53;100.00;99296.00;5051521;28;20027;-81
2023/06/17 02:08:47;;;;;;;11.65;10.45;;;;;;;14.48;100.00;99279.75;5051110;28;20491;-81
2023/06/17 02:11:13;;;;;;;12.45;9.68;;;;;;;14.53;100.00;99295.19;5050034;28;20025;-81
2023/06/17 02:13:38;;;;;;;13.73;10.50;;;;;;;14.58;100.00;99301.81;5050910;28;20033;-81
2023/06/17 02:16:03;;;;;;;11.90;10.73;;;;;;;14.44;100.00;99266.00;5051250;28;20488;-81
2023/06/17 02:18:32;;;;;;;9.77;8.88;;;;;;;14.61;100.00;99287.63;5049883;28;20499;-81
2023/06/17 02:21:00;;;;;;;10.93;9.77;;;;;;;14.67;100.00;99293.28;5051938;28;20021;-81
2023/06/17 02:23:26;;;;;;;10.50;9.50;;;;;;;14.63;100.00;99294.44;5055052;28;20052;-82
2023/06/17 02:25:52;;;;;;;11.80;9.52;;;;;;;14.65;100.00;99295.16;5053336;28;20059;-82
2023/06/17 02:28:17;;;;;;;11.32;10.13;;;;;;;14.71;100.00;99305.25;5054845;28;20072;-81
2023/06/17 02:30:42;;;;;;;10.77;9.73;;;;;;;14.61;100.00;99271.91;5054814;28;20021;-82
2023/06/17 02:33:08;;;;;;;12.27;10.20;;;;;;;14.67;100.00;99289.84;5053518;28;20044;-81
2023/06/17 02:35:33;;;;;;;10.00;8.98;;;;;;;14.64;100.00;99274.31;5053049;28;20497;-82
2023/06/17 02:37:59;;;;;;;10.95;9.85;;;;;;;14.63;100.00;99280.50;5054694;28;20068;-81
2023/06/17 02:40:24;;;;;;;12.98;9.50;;;;;;;14.73;100.00;99298.09;5053352;28;20127;-82
2023/06/17 02:42:51;;;;;;;11.40;10.23;;;;;;;14.66;100.00;99277.66;5054190;28;20094;-81
2023/06/17 02:45:16;;;;;;;10.98;9.88;;;;;;;14.71;100.00;99283.44;5055012;28;20029;-81
2023/06/17 02:47:42;;;;;;;11.65;9.70;;;;;;;14.86;100.00;99300.72;5054283;28;20056;-81
2023/06/17 02:50:08;;;;;;;14.02;9.95;;;;;;;14.81;100.00;99292.34;5054575;28;20420;-81
2023/06/17 02:52:34;;;;;;;12.25;9.80;;;;;;;14.76;100.00;99277.88;5052875;28;20553;-81
2023/06/17 02:55:01;;;;;;;14.65;9.68;;;;;;;14.71;100.00;99265.94;5053050;28;20025;-82
2023/06/17 02:57:26;;;;;;;12.10;10.90;;;;;;;14.77;100.00;99264.66;5054234;28;20061;-81
2023/06/17 02:59:52;;;;;;;11.98;10.77;;;;;;;14.91;100.00;99293.34;5054307;28;20461;-81
2023/06/17 03:02:17;;;;;;;10.82;9.73;;;;;;;14.95;100.00;99286.13;5054235;28;20090;-82
2023/06/17 03:04:43;;;;;;;11.35;9.50;;;;;;;15.00;100.00;99289.28;5052706;28;20036;-81
2023/06/17 03:07:08;;;;;;;17.40;11.60;;;;;;;15.04;100.00;99287.25;5052795;28;20453;-81
2023/06/17 03:09:33;;;;;;;12.20;10.90;;;;;;;15.08;100.00;99296.56;5053956;28;20029;-81
2023/06/17 03:11:59;;;;;;;11.70;10.18;;;;;;;15.15;100.00;99298.66;5053969;28;20029;-82
2023/06/17 03:14:25;;;;;;;11.30;9.85;;;;;;;15.12;100.00;99284.91;5054171;28;20029;-82
2023/06/17 03:16:51;;;;;;;11.32;9.65;;;;;;;14.87;100.00;99236.81;5053893;28;20459;-82
2023/06/17 03:19:17;;;;;;;15.40;12.95;;;;;;;15.18;100.00;99295.00;5051343;28;20492;-81
2023/06/17 03:21:45;;;;;;;11.77;10.57;;;;;;;15.26;100.00;99295.28;5051135;28;20187;-81
2023/06/17 03:24:10;;;;;;;12.82;10.65;;;;;;;15.11;100.00;99270.13;5051468;28;20037;-81
2023/06/17 03:26:36;;;;;;;12.55;10.68;;;;;;;15.23;100.00;99292.88;5051243;28;20039;-82
2023/06/17 03:29:03;;;;;;;11.90;10.70;;;;;;;15.11;100.00;99270.13;5051277;28;20045;-81
2023/06/17 03:31:29;;;;;;;14.20;9.77;;;;;;;15.23;100.00;99291.09;5034388;28;20051;-81
2023/06/17 03:33:55;;;;;;;11.90;10.70;;;;;;;15.28;100.00;99298.63;5049648;28;20053;-82
2023/06/17 03:36:30;;;;;;;14.80;11.48;;;;;;;15.32;100.00;99302.69;5051324;28;20373;-82
2023/06/17 03:38:56;;;;;;;11.77;10.57;;;;;;;15.23;100.00;99291.09;5050881;28;20390;-82
2023/06/17 03:41:23;;;;;;;13.00;11.65;;;;;;;15.04;100.00;99256.59;5034300;28;20033;-82
2023/06/17 03:43:49;;;;;;;15.27;11.48;;;;;;;15.17;100.00;99280.22;5050703;28;20601;-82
2023/06/17 03:46:15;;;;;;;12.10;10.77;;;;;;;15.30;100.00;99299.38;5051000;28;20043;-81
2023/06/17 03:48:40;;;;;;;12.00;10.55;;;;;;;15.33;100.00;99300.91;5050677;28;20048;-81
2023/06/17 03:51:06;;;;;;;11.98;10.55;;;;;;;15.28;100.00;99290.75;5034187;28;20076;-82
2023/06/17 03:53:31;;;;;;;12.00;10.80;;;;;;;15.30;100.00;99295.91;5034220;28;20443;-82
2023/06/17 03:55:56;;;;;;;11.45;10.18;;;;;;;15.37;100.00;99299.75;5051014;28;20044;-82
2023/06/17 03:58:22;;;;;;;11.60;10.48;;;;;;;15.30;100.00;99278.38;5053273;28;20025;-82
2023/06/17 04:00:50;;;;;;;12.32;11.02;;;;;;;15.50;100.00;99305.78;5051593;28;20033;-81
2023/06/17 04:03:17;;;;;;;10.65;9.55;;;;;;;15.55;100.00;99302.81;5053038;28;20029;-82
2023/06/17 04:05:43;;;;;;;12.07;10.38;;;;;;;15.60;100.00;99298.94;5052822;28;20480;-82
2023/06/17 04:08:09;;;;;;;11.27;10.07;;;;;;;15.53;100.00;99279.31;5052788;28;20036;-82
2023/06/17 04:10:34;;;;;;;13.25;10.95;;;;;;;15.62;100.00;99275.19;5051732;28;20388;-82
2023/06/17 04:13:00;;;;;;;18.10;11.45;;;;;;;15.69;100.00;99268.56;5052968;28;20017;-82
2023/06/17 04:15:25;;;;;;;12.13;10.88;;;;;;;15.78;100.00;99267.88;5052944;28;20028;-81
2023/06/17 04:17:50;;;;;;;13.40;10.30;;;;;;;16.10;100.00;99298.81;5051221;28;20025;-81
2023/06/17 04:20:16;;;;;;;12.20;10.93;;;;;;;16.25;100.00;99295.00;5051452;28;20055;-82
2023/06/17 04:22:43;;;;;;;11.75;10.55;;;;;;;16.35;100.00;99297.78;5052381;28;20032;-82
2023/06/17 04:25:11;;;;;;;14.75;9.88;;;;;;;16.71;100.00;99308.09;5053079;28;20469;-82
2023/06/17 04:27:38;;;;;;;12.43;10.43;;;;;;;17.34;100.00;99302.34;5052469;28;20028;-81
2023/06/17 04:30:08;;;;;;;11.10;10.05;;;;;;;18.08;99.53;99307.78;5030050;28;20071;-82
2023/06/17 04:32:38;;;;;;;11.98;10.77;;;;;;;18.47;96.09;99277.22;5013620;28;20041;-82
2023/06/17 04:35:05;;;;;;;10.32;9.27;;;;;;;18.86;92.99;99296.72;5013244;28;20621;-82
2023/06/17 04:37:32;;;;;;;10.65;9.65;;;;;;;18.85;91.24;99302.13;5030233;28;20060;-82
2023/06/17 04:39:58;;;;;;;10.25;9.20;;;;;;;18.64;91.16;99281.88;5029778;28;20131;-82
2023/06/17 04:42:24;;;;;;;10.82;9.65;;;;;;;18.50;90.77;99284.88;5030016;28;20084;-82
2023/06/17 04:44:49;;;;;;;11.48;10.18;;;;;;;18.36;91.01;99266.72;5029820;28;20496;-82
2023/06/17 04:47:16;;;;;;;10.27;9.27;;;;;;;18.47;91.06;99294.84;5030157;28;20465;-82
2023/06/17 04:49:47;;;;;;;11.93;10.05;;;;;;;18.34;91.11;99273.94;5029514;28;20689;-82
2023/06/17 04:52:13;;;;;;;10.68;9.18;;;;;;;18.41;90.83;99277.72;5029858;28;20785;-82
2023/06/17 04:54:39;;;;;;;12.20;9.45;;;;;;;18.66;90.36;99298.38;5029462;28;20107;-82
2023/06/17 04:57:04;;;;;;;9.40;8.50;;;;;;;18.79;89.60;99292.91;5029749;28;20029;-82
2023/06/17 04:59:30;;;;;;;10.93;9.00;;;;;;;18.98;89.14;99283.44;5029718;28;20520;-82
2023/06/17 05:01:55;;;;;;;10.65;8.75;;;;;;;19.43;87.63;99284.66;5048776;28;20052;-82
2023/06/17 05:04:20;;;;;;;9.45;8.43;;;;;;;19.71;85.62;99260.22;5052053;28;20029;-82
2023/06/17 05:06:46;;;;;;;9.10;8.27;;;;;;;20.34;84.05;99300.25;5050484;28;20504;-82
2023/06/17 05:09:11;;;;;;;10.80;8.73;;;;;;;20.81;82.33;99271.16;5052179;28;20040;-81
2023/06/17 05:11:38;;;;;;;9.35;8.45;;;;;;;21.61;78.80;99282.84;5051874;28;20025;-81
2023/06/17 05:14:04;;;;;;;8.43;7.72;;;;;;;21.97;76.05;99285.50;5052066;28;20112;-81
2023/06/17 05:16:30;;;;;;;8.82;7.65;;;;;;;22.04;76.15;99298.00;5051879;28;20025;-81
2023/06/17 05:18:55;;;;;;;8.80;7.90;;;;;;;22.25;74.55;99286.22;5051576;28;20037;-81
2023/06/17 05:21:22;;;;;;;8.18;7.40;;;;;;;22.12;74.03;99276.00;5051952;28;20425;-81
2023/06/17 05:23:48;;;;;;;12.35;7.80;;;;;;;22.11;74.11;99292.91;5050423;28;20132;-81
2023/06/17 05:26:13;;;;;;;9.15;7.07;;;;;;;22.18;73.96;99275.41;5050645;28;20171;-81
2023/06/17 05:28:38;;;;;;;8.55;7.75;;;;;;;22.24;72.84;99287.22;5051554;28;20029;-81
2023/06/17 05:31:04;;;;;;;7.07;6.45;;;;;;;22.33;72.60;99287.16;5051889;28;20032;-81
2023/06/17 05:33:29;;;;;;;8.02;7.32;;;;;;;22.54;71.71;99299.19;5051547;28;20029;-81
2023/06/17 05:36:00;;;;;;;7.80;6.80;;;;;;;22.50;72.15;99293.38;5051393;28;20039;-81
2023/06/17 05:38:25;;;;;;;9.18;7.45;;;;;;;22.44;71.48;99294.00;5051845;28;20029;-81
2023/06/17 05:40:50;;;;;;;8.27;6.53;;;;;;;22.41;71.49;99300.44;5051571;28;20028;-81
2023/06/17 05:43:16;;;;;;;7.95;7.15;;;;;;;22.20;72.02;99278.72;5051962;28;20061;-81
2023/06/17 05:45:41;;;;;;;7.93;6.78;;;;;;;22.24;71.77;99285.41;5051412;28;20383;-81
2023/06/17 05:48:06;;;;;;;8.57;7.07;;;;;;;22.41;71.85;99305.75;5051453;28;20507;-81
2023/06/17 05:50:32;;;;;;;8.13;7.03;;;;;;;22.36;71.33;99293.94;5051399;28;20082;-81
2023/06/17 05:52:57;;;;;;;8.02;7.22;;;;;;;22.28;71.12;99275.31;5051423;28;20036;-82
2023/06/17 05:55:22;;;;;;;8.43;7.10;;;;;;;22.65;71.05;99310.38;5051524;28;20064;-82
2023/06/17 05:57:48;;;;;;;7.72;6.90;;;;;;;22.76;69.48;99296.03;5054966;28;20025;-81
2023/06/17 06:00:15;;;;;;;10.80;7.50;;;;;;;22.81;68.39;99293.72;5055125;28;20050;-82
2023/06/17 06:02:40;;;;;;;7.40;6.70;;;;;;;22.88;68.61;99307.19;5054902;28;20028;-82
2023/06/17 06:05:06;;;;;;;7.40;6.70;;;;;;;23.12;68.71;99311.81;5054037;28;20025;-82
2023/06/17 06:07:31;;;;;;;7.20;6.50;;;;;;;23.52;67.73;99319.09;5054356;28;20036;-82
2023/06/17 06:09:57;;;;;;;7.45;6.75;;;;;;;23.50;66.59;99291.81;5055171;28;20025;-82
2023/06/17 06:12:22;;;;;;;7.25;6.55;;;;;;;23.33;66.18;99288.28;5055473;28;20358;-82
2023/06/17 06:14:47;;;;;;;7.93;6.80;;;;;;;23.18;66.31;99305.88;5054974;28;20023;-82
2023/06/17 06:17:13;;;;;;;9.27;7.15;;;;;;;22.79;67.57;99300.16;5055361;28;20141;-82
2023/06/17 06:19:38;;;;;;;7.38;6.65;;;;;;;22.59;67.76;99297.75;5054967;28;20063;-82
2023/06/17 06:22:04;;;;;;;6.90;6.30;;;;;;;22.44;68.57;99319.72;5055474;28;20031;-82
2023/06/17 06:24:29;;;;;;;8.60;6.18;;;;;;;22.22;69.48;99310.44;5053791;28;20021;-82
2023/06/17 06:26:54;;;;;;;6.82;6.13;;;;;;;22.02;70.24;99307.91;5054961;28;20029;-82
2023/06/17 06:29:20;;;;;;;6.57;5.68;;;;;;;21.71;70.19;99294.22;5055220;28;20037;-82
2023/06/17 06:31:46;;;;;;;7.25;6.15;;;;;;;21.78;70.57;99316.47;5054623;28;20029;-82
2023/06/17 06:34:11;;;;;;;6.85;6.13;;;;;;;21.76;71.47;99321.09;5054686;28;20423;-82
2023/06/17 06:36:36;;;;;;;6.85;6.18;;;;;;;21.82;71.21;99333.75;5054995;28;20032;-82
2023/06/17 06:39:02;;;;;;;5.93;5.30;;;;;;;21.86;70.78;99321.84;5054430;28;20099;-82
2023/06/17 06:41:27;;;;;;;6.50;5.82;;;;;;;21.96;70.79;99327.09;5054612;28;20119;-82
2023/06/17 06:43:53;;;;;;;7.13;5.55;;;;;;;22.14;70.60;99319.97;5047034;28;20041;-82
2023/06/17 06:46:18;;;;;;;5.90;5.40;;;;;;;22.66;68.46;99312.03;5034711;28;20025;-82
2023/06/17 06:48:43;;;;;;;5.05;4.35;;;;;;;23.32;66.81;99331.81;5034353;28;20057;-82
2023/06/17 06:51:09;;;;;;;5.43;4.93;;;;;;;24.19;65.37;99328.81;5034724;28;20350;-82
2023/06/17 06:53:34;;;;;;;5.35;4.82;;;;;;;25.00;62.85;99314.56;5042856;28;20380;-82
2023/06/17 06:56:00;;;;;;;5.82;5.32;;;;;;;25.12;61.71;99307.91;5054545;28;20496;-82
2023/06/17 06:58:25;;;;;;;4.93;4.40;;;;;;;25.18;61.22;99323.19;5054436;28;20487;-82
2023/06/17 07:00:51;;;;;;;6.53;4.70;;;;;;;24.99;61.19;99321.75;5054042;28;20028;-82
2023/06/17 07:03:16;;;;;;;4.50;4.10;;;;;;;24.81;61.21;99335.25;5053801;28;20021;-81
2023/06/17 07:05:41;;;;;;;5.90;4.28;;;;;;;24.61;61.75;99324.16;5042611;28;20080;-82
2023/06/17 07:08:07;;;;;;;4.35;3.95;;;;;;;24.63;62.34;99334.63;5034014;28;20040;-82
2023/06/17 07:10:33;;;;;;;4.55;4.18;;;;;;;24.77;61.63;99328.59;5034246;28;20021;-82
2023/06/17 07:12:58;;;;;;;5.30;4.80;;;;;;;24.66;61.58;99312.19;5033866;28;20033;-82
2023/06/17 07:15:24;;;;;;;4.30;3.90;;;;;;;24.68;60.93;99313.66;5034210;28;20029;-82
2023/06/17 07:17:49;;;;;;;3.92;3.50;;;;;;;24.74;60.56;99326.31;5032469;28;20498;-82
2023/06/17 07:20:15;;;;;;;4.28;3.92;;;;;;;24.78;60.80;99326.81;5033771;28;20112;-82
2023/06/17 07:22:40;;;;;;;4.72;4.22;;;;;;;24.52;61.21;99325.16;5034372;28;20052;-82
2023/06/17 07:25:05;;;;;;;4.75;4.32;;;;;;;24.04;61.77;99321.50;5033390;28;20441;-83
2023/06/17 07:27:31;;;;;;;4.47;4.07;;;;;;;23.80;62.80;99322.31;5051157;28;20116;-82
2023/06/17 07:29:56;;;;;;;4.75;4.35;;;;;;;23.81;63.40;99339.13;5053633;28;20040;-82
2023/06/17 07:32:21;;;;;;;4.70;4.30;;;;;;;23.75;63.51;99335.28;5053582;28;20086;-82
2023/06/17 07:34:48;;;;;;;4.30;3.95;;;;;;;23.55;64.01;99320.56;5053564;28;20053;-82
2023/06/17 07:37:13;;;;;;;5.45;4.95;;;;;;;23.49;64.47;99314.09;5052755;28;20423;-82
2023/06/17 07:39:38;;;;;;;6.60;4.72;;;;;;;23.51;64.77;99328.06;5070973;28;20070;-82
2023/06/17 07:42:04;;;;;;;5.82;5.22;;;;;;;23.33;64.99;99314.88;5053985;28;20115;-82
2023/06/17 07:44:31;;;;;;;6.25;4.93;;;;;;;23.35;65.31;99334.16;5071024;28;20550;-82
2023/06/17 07:46:57;;;;;;;5.28;4.55;;;;;;;23.31;65.82;99335.47;5070641;28;20039;-82
2023/06/17 07:49:22;;;;;;;5.53;5.03;;;;;;;23.22;66.42;99314.31;5070815;28;20036;-82
2023/06/17 07:51:47;;;;;;;6.90;5.55;;;;;;;23.39;66.28;99308.94;5070531;28;20408;-82
2023/06/17 07:54:13;;;;;;;5.47;4.95;;;;;;;23.55;65.27;99304.63;5070738;28;20094;-82
2023/06/17 07:56:38;;;;;;;6.72;4.75;;;;;;;23.63;65.04;99313.44;5061668;28;20087;-82
2023/06/17 07:59:04;;;;;;;5.28;4.78;;;;;;;23.69;64.51;99295.22;5053038;28;20041;-82
2023/06/17 08:01:29;;;;;;;5.93;5.20;;;;;;;23.92;64.77;99312.19;5050666;28;20036;-82
2023/06/17 08:03:55;;;;;;;5.95;5.05;;;;;;;23.80;64.95;99314.34;5050646;28;20469;-82
2023/06/17 08:06:20;;;;;;;7.43;4.93;;;;;;;23.46;65.46;99324.22;5050518;28;20194;-82
2023/06/17 08:08:45;;;;;;;4.82;4.43;;;;;;;23.20;65.40;99318.97;5050610;28;20039;-82
2023/06/17 08:11:11;;;;;;;5.55;4.47;;;;;;;23.83;65.21;99329.97;5031187;28;20474;-83
2023/06/17 08:13:36;;;;;;;6.25;5.72;;;;;;;24.62;63.32;99319.66;5032924;28;20393;-83
2023/06/17 08:16:02;;;;;;;6.13;5.53;;;;;;;25.14;61.09;99321.88;5033106;28;20033;-82
2023/06/17 08:18:27;;;;;;;6.50;5.80;;;;;;;25.15;60.78;99304.84;5032402;28;20029;-83
2023/06/17 08:20:53;;;;;;;6.60;5.57;;;;;;;25.24;60.11;99313.66;5032549;28;20067;-82
2023/06/17 08:23:18;;;;;;;6.18;5.57;;;;;;;25.24;59.67;99314.50;5032966;28;20026;-82
2023/06/17 08:25:45;;;;;;;5.47;4.93;;;;;;;25.26;58.99;99322.31;5033140;28;20029;-83
2023/06/17 08:28:11;;;;;;;5.13;4.72;;;;;;;25.21;59.77;99317.50;5032302;28;20049;-83
2023/06/17 08:30:36;;;;;;;6.10;5.50;;;;;;;25.08;59.32;99288.75;5032605;28;20065;-82
2023/06/17 08:33:01;;;;;;;6.05;5.45;;;;;;;25.12;59.84;99305.22;5032508;28;20076;-82
2023/06/17 08:35:27;;;;;;;8.05;5.80;;;;;;;25.03;59.89;99301.75;5032690;28;20053;-83
2023/06/17 08:37:52;;;;;;;7.15;5.38;;;;;;;24.94;60.53;99297.41;5032489;28;20026;-83
2023/06/17 08:40:18;;;;;;;5.65;5.15;;;;;;;25.13;59.90;99318.38;5032707;28;20420;-82
2023/06/17 08:42:44;;;;;;;6.80;6.20;;;;;;;25.24;60.48;99321.66;5032691;28;20036;-82
2023/06/17 08:45:10;;;;;;;6.72;5.82;;;;;;;25.10;60.75;99300.06;5030733;28;20026;-82
2023/06/17 08:47:35;;;;;;;5.95;5.25;;;;;;;25.16;60.25;99321.69;5032709;28;20022;-82
2023/06/17 08:50:02;;;;;;;5.40;4.93;;;;;;;25.30;60.41;99312.97;5032187;28;20473;-82
2023/06/17 08:52:31;;;;;;;6.53;5.90;;;;;;;25.25;60.14;99313.50;5031025;28;20436;-82
2023/06/17 08:54:58;;;;;;;5.70;5.20;;;;;;;25.34;59.20;99300.94;5032017;28;20055;-82
2023/06/17 08:57:24;;;;;;;5.85;5.25;;;;;;;25.36;58.77;99307.75;5032206;28;20030;-83
2023/06/17 08:59:49;;;;;;;4.72;4.32;;;;;;;25.38;58.07;99299.59;5031796;28;20052;-83
2023/06/17 09:02:15;;;;;;;5.45;5.05;;;;;;;25.32;58.87;99305.63;5032062;28;20099;-83
2023/06/17 09:04:41;;;;;;;5.93;5.32;;;;;;;25.15;58.91;99296.88;5032217;28;20034;-83
2023/06/17 09:07:09;;;;;;;5.32;4.82;;;;;;;25.19;58.97;99303.50;5032112;28;20113;-83
2023/06/17 09:09:34;;;;;;;6.50;5.70;;;;;;;24.99;58.96;99279.09;5032110;28;20029;-83
2023/06/17 09:12:04;;;;;;;5.45;5.05;;;;;;;25.04;59.78;99300.72;5049048;28;20039;-83
2023/06/17 09:14:30;;;;;;;5.60;5.15;;;;;;;24.87;59.87;99305.28;5049514;28;20041;-82
2023/06/17 09:16:56;;;;;;;6.47;5.13;;;;;;;24.82;59.59;99296.16;5032340;28;20548;-82
2023/06/17 09:19:22;;;;;;;5.57;5.07;;;;;;;24.94;59.58;99305.41;5049584;28;20029;-83
2023/06/17 09:21:48;;;;;;;5.40;4.97;;;;;;;24.93;59.88;99281.63;5029343;28;20127;-83
2023/06/17 09:24:13;;;;;;;6.43;5.82;;;;;;;24.95;59.91;99296.44;5029261;28;20393;-83
2023/06/17 09:26:43;;;;;;;9.20;5.60;;;;;;;24.76;59.80;99307.47;5012964;28;20065;-83
2023/06/17 09:29:12;;;;;;;5.82;5.25;;;;;;;24.64;60.22;99293.69;5029054;28;20029;-82
2023/06/17 09:31:55;;;;;;;5.45;4.97;;;;;;;24.59;60.86;99298.69;5031065;28;20269;-83
2023/06/17 09:34:22;;;;;;;5.68;5.15;;;;;;;24.76;61.04;99312.81;5033522;28;20436;-83
2023/06/17 09:37:00;;;;;;;5.63;4.88;;;;;;;24.76;60.44;99297.66;5033396;28;20033;-83
2023/06/17 09:39:32;;;;;;;5.05;4.65;;;;;;;24.63;60.30;99273.41;5033400;28;20030;-82
2023/06/17 09:42:06;;;;;;;5.25;4.75;;;;;;;24.89;59.83;99311.25;5033374;28;20041;-82
2023/06/17 09:44:32;;;;;;;5.65;4.60;;;;;;;24.69;59.90;99280.69;5033370;28;20725;-83
2023/06/17 09:47:05;;;;;;;5.28;4.68;;;;;;;24.74;60.47;99304.16;5033529;28;20038;-83
2023/06/17 09:49:33;;;;;;;5.32;4.50;;;;;;;24.63;59.68;99286.72;5033210;28;20358;-83
2023/06/17 09:52:02;;;;;;;5.22;4.72;;;;;;;24.67;58.90;99295.19;5033465;28;20095;-83
2023/06/17 09:54:29;;;;;;;4.30;3.90;;;;;;;24.51;59.05;99283.56;5035717;28;20070;-83
2023/06/17 09:56:58;;;;;;;4.88;4.47;;;;;;;24.49;58.34;99284.75;5035459;28;20029;-83
2023/06/17 09:59:24;;;;;;;4.63;4.22;;;;;;;24.54;58.56;99301.03;5034205;28;20022;-83
2023/06/17 10:01:50;;;;;;;4.82;4.25;;;;;;;24.35;58.71;99287.06;5035413;28;20026;-83
2023/06/17 10:04:16;;;;;;;4.07;3.72;;;;;;;24.29;59.00;99295.72;5033754;28;20033;-83
2023/06/17 10:06:46;;;;;;;4.10;3.80;;;;;;;24.03;59.38;99274.63;5035305;28;20113;-82
2023/06/17 10:09:13;;;;;;;4.53;4.20;;;;;;;23.97;60.50;99279.78;5035256;28;20029;-82
2023/06/17 10:11:43;;;;;;;4.95;4.00;;;;;;;23.99;61.03;99293.75;5035485;28;20067;-83
2023/06/17 10:14:17;;;;;;;5.50;4.03;;;;;;;23.88;60.85;99278.94;5035197;28;20108;-82
2023/06/17 10:16:48;;;;;;;5.05;4.30;;;;;;;23.98;60.93;99297.41;5034935;28;20049;-83
2023/06/17 10:19:17;;;;;;;5.05;4.15;;;;;;;23.97;61.05;99287.75;5034968;28;20105;-83
2023/06/17 10:21:48;;;;;;;4.35;3.95;;;;;;;24.09;61.02;99286.41;5033786;28;20018;-85
2023/06/17 10:24:14;;;;;;;4.18;3.78;;;;;;;24.19;60.80;99287.09;5034680;28;20029;-85
2023/06/17 10:26:40;;;;;;;4.60;3.72;;;;;;;24.16;60.35;99271.47;5033707;28;20036;-84
2023/06/17 10:29:07;;;;;;;4.43;4.03;;;;;;;24.29;60.31;99295.72;5033387;28;20025;-83
2023/06/17 10:31:42;;;;;;;4.35;3.95;;;;;;;24.44;60.98;99285.28;5034733;28;20104;-83
2023/06/17 10:34:15;;;;;;;3.65;3.35;;;;;;;24.50;58.70;99286.41;5034486;28;20540;-83
2023/06/17 10:36:41;;;;;;;3.72;3.42;;;;;;;24.46;59.13;99266.47;5033532;28;20103;-83
2023/06/17 10:39:11;;;;;;;3.72;3.42;;;;;;;24.53;59.90;99267.44;5034550;28;20270;-83
2023/06/17 10:41:39;;;;;;;3.90;3.60;;;;;;;24.68;59.43;99287.03;5034336;28;20030;-83
2023/06/17 10:44:41;;;;;;;4.28;3.90;;;;;;;24.62;59.32;99291.22;5034193;28;20033;-83
2023/06/17 10:47:19;;;;;;;3.75;3.42;;;;;;;24.44;59.38;99269.28;5031953;28;20583;-83
2023/06/17 10:49:46;;;;;;;4.20;3.88;;;;;;;24.39;59.59;99275.09;5032189;28;20075;-83
2023/06/17 10:52:13;;;;;;;4.18;3.70;;;;;;;24.17;60.23;99251.00;5031766;28;20072;-82
2023/06/17 10:54:50;;;;;;;3.65;3.35;;;;;;;24.15;60.26;99254.66;5031888;28;20116;-84
2023/06/17 10:57:15;;;;;;;4.43;4.03;;;;;;;24.20;60.16;99283.44;5031584;28;20674;-84
2023/06/17 10:59:40;;;;;;;4.70;3.88;;;;;;;24.18;60.45;99285.41;5031995;28;20143;-84
2023/06/17 11:02:07;;;;;;;5.15;4.63;;;;;;;24.19;60.57;99292.41;5031467;28;20108;-85
2023/06/17 11:04:40;;;;;;;4.55;3.67;;;;;;;24.00;60.52;99255.50;5031773;28;20033;-85
2023/06/17 11:07:06;;;;;;;4.30;3.90;;;;;;;24.00;60.22;99274.13;5031583;28;20064;-86
2023/06/17 11:09:34;;;;;;;4.30;3.90;;;;;;;23.79;60.11;99271.97;5031926;28;20473;-86
2023/06/17 11:12:02;;;;;;;3.92;3.42;;;;;;;23.67;60.65;99263.47;5014753;28;20025;-84
2023/06/17 11:14:29;;;;;;;4.22;3.83;;;;;;;23.69;60.42;99265.97;5031690;28;20044;-84
2023/06/17 11:16:55;;;;;;;4.10;3.80;;;;;;;23.87;60.62;99270.13;5031525;28;20045;-83
2023/06/17 11:19:20;;;;;;;4.30;3.90;;;;;;;23.90;59.67;99275.13;5031211;28;20044;-83
2023/06/17 11:21:50;;;;;;;3.63;3.33;;;;;;;24.04;59.52;99265.63;5015230;28;20472;-84